Silver Bergen — LAHO6 — position and weather

sailwx.info

Track history (hours):
 
Tides and Currents Weather Stations Pressure Air Temp Water Temp Dewpoint Dewpoint Depression Visibility Wind Speed Wind Dir Waves Ship Positions

Silver Bergen

Last reported at 2017-Sep-21 23:28 UTC. Time now 2017-Sep-24 17:54 UTC.
Position N 53°37' E 014°35'.

Length 98 m; draft 4.5 m.

Type: Cargo ship. MMSI: 257951000.

Date/timePositionNaut miles runAvg speedWind from/ knotsBaromVisibWave heightAir tempDewpointWater temp
2017-Sep-21 23:28N 53°37' E 014°35'511.8
2017-Sep-21 23:00N 53°32' E 014°38'5 9.4
2017-Sep-21 22:31N 53°28' E 014°36'2 4.4
2017-Sep-21 21:58N 53°26' E 014°34'0 0.0
2017-Sep-21 21:28N 53°26' E 014°34'0 0.0
2017-Sep-21 20:58N 53°26' E 014°34'0 0.0
2017-Sep-21 20:31N 53°26' E 014°34'0 0.0
2017-Sep-21 19:58N 53°26' E 014°34'0 0.0
2017-Sep-21 19:31N 53°26' E 014°34'0 0.0
2017-Sep-21 19:01N 53°26' E 014°34'0 0.0
2017-Sep-21 18:31N 53°26' E 014°34'0 0.0
2017-Sep-21 17:58N 53°26' E 014°34'0 0.0
2017-Sep-21 17:28N 53°26' E 014°34'0 0.0
2017-Sep-21 17:01N 53°26' E 014°34'0 0.0
2017-Sep-21 16:31N 53°26' E 014°34'0 0.0
2017-Sep-21 16:01N 53°26' E 014°34'0 0.0
2017-Sep-21 15:28N 53°26' E 014°34'0 0.0
2017-Sep-21 15:01N 53°26' E 014°34'0 0.0
2017-Sep-21 14:28N 53°26' E 014°34'0 0.0
2017-Sep-21 14:01N 53°26' E 014°34'0 0.0
2017-Sep-21 13:28N 53°26' E 014°34'0 0.0
2017-Sep-21 12:58N 53°26' E 014°34'0 0.0
2017-Sep-21 12:28N 53°26' E 014°34'0 0.0
2017-Sep-21 11:58N 53°26' E 014°34'0 0.0
2017-Sep-21 11:28N 53°26' E 014°34'0 0.0
2017-Sep-21 10:58N 53°26' E 014°34'0 0.0
2017-Sep-21 10:29N 53°26' E 014°34'1 1.5
2017-Sep-21 10:00N 53°26' E 014°35'4 8.6
2017-Sep-21 09:30N 53°30' E 014°38'510.1
2017-Sep-21 09:00N 53°35' E 014°36'10912.3
2017-Sep-21 00:09N 55°04' E 012°47'214.8
2017-Sep-21 00:00N 55°06' E 012°45'714.9
2017-Sep-20 23:30N 55°12' E 012°38'714.3
2017-Sep-20 23:00N 55°19' E 012°37'714.4
2017-Sep-20 22:31N 55°26' E 012°39'713.6
2017-Sep-20 22:01N 55°33' E 012°42'611.2
2017-Sep-20 21:31N 55°38' E 012°41'5 9.4
2017-Sep-20 21:00N 55°43' E 012°41'612.1
2017-Sep-20 20:31N 55°49' E 012°42'714.2
2017-Sep-20 20:01N 55°56' E 012°38'713.9
2017-Sep-20 19:30N 56°03' E 012°38'713.3
2017-Sep-20 19:00N 56°07' E 012°30'714.4
2017-Sep-20 18:30N 56°11' E 012°19'6714.3
2017-Sep-20 13:50N 57°13' E 011°31'514.0
2017-Sep-20 13:31N 57°17' E 011°28'714.0
2017-Sep-20 13:00N 57°24' E 011°23'713.7
2017-Sep-20 12:30N 57°30' E 011°18'714.0
2017-Sep-20 12:00N 57°35' E 011°08'814.1
2017-Sep-20 11:28N 57°40' E 010°58'713.9
2017-Sep-20 11:00N 57°44' E 010°49'713.4
2017-Sep-20 10:29N 57°47' E 010°37'714.3
2017-Sep-20 10:00N 57°47' E 010°24'6914.6
2017-Sep-20 05:16N 57°48' E 008°15'414.5
2017-Sep-20 05:00N 57°48' E 008°08'714.6
2017-Sep-20 04:30N 57°48' E 007°54'714.0
2017-Sep-20 04:00N 57°48' E 007°41'612.9
2017-Sep-20 03:30N 57°48' E 007°29'613.2
2017-Sep-20 03:00N 57°48' E 007°17'713.2
2017-Sep-20 02:30N 57°48' E 007°04'713.0
2017-Sep-20 02:00N 57°49' E 006°52'713.2
2017-Sep-20 01:30N 57°51' E 006°40'713.3
2017-Sep-20 01:00N 57°53' E 006°28'612.7
2017-Sep-20 00:29N 57°55' E 006°17'713.8
2017-Sep-19 23:59N 57°58' E 006°05'714.1
2017-Sep-19 23:30N 58°02' E 005°54'1914.2
2017-Sep-19 22:10N 58°14' E 005°27'1914.3
2017-Sep-19 20:51N 58°29' E 005°05'514.1
2017-Sep-19 20:30N 58°32' E 004°58'  
2017-Sep-12 19:14N 55°53' W 007°04'416.4
2017-Sep-12 19:00N 55°50' W 007°01'816.7
2017-Sep-12 18:30N 55°42' W 006°53'917.2
2017-Sep-12 18:00N 55°35' W 006°44'816.4
2017-Sep-12 17:30N 55°29' W 006°36'816.0
2017-Sep-12 17:00N 55°26' W 006°22'816.0
2017-Sep-12 16:30N 55°25' W 006°09'714.5
2017-Sep-12 16:00N 55°20' W 005°58'815.4
2017-Sep-12 15:30N 55°14' W 005°50'814.9
2017-Sep-12 14:59N 55°08' W 005°42'1314.3
2017-Sep-12 14:05N 54°57' W 005°30'114.0
2017-Sep-12 14:00N 54°56' W 005°29'713.6
2017-Sep-12 13:30N 54°50' W 005°23'713.2
2017-Sep-12 13:00N 54°44' W 005°18'713.4
2017-Sep-12 12:30N 54°38' W 005°16'713.7
2017-Sep-12 12:00N 54°31' W 005°14'713.6
2017-Sep-12 11:30N 54°24' W 005°13'714.3
2017-Sep-12 11:00N 54°17' W 005°12'10613.5
2017-Sep-12 03:08N 52°33' W 005°45'214.4
2017-Sep-12 03:00N 52°31' W 005°46'1014.9
2017-Sep-12 02:18N 52°21' W 005°52'415.3
2017-Sep-12 02:01N 52°17' W 005°55'1115.4
2017-Sep-12 01:18N 52°07' W 006°01'515.6
2017-Sep-12 00:58N 52°03' W 006°06'  
Track history (hours):
 
Tides and Currents Weather Stations Pressure Air Temp Water Temp Dewpoint Dewpoint Depression Visibility Wind Speed Wind Dir Waves Ship Positions

Silver Bergen

Last reported at 2017-Sep-21 23:28 UTC. Time now 2017-Sep-24 17:54 UTC.
Position N 53°37' E 014°35'.

Length 98 m; draft 4.5 m.

Type: Cargo ship. MMSI: 257951000.

Date/timePositionNaut miles runAvg speedWind from/ knotsBaromVisibWave heightAir tempDewpointWater temp
2017-Sep-21 23:28N 53°37' E 014°35'511.8
2017-Sep-21 23:00N 53°32' E 014°38'5 9.4
2017-Sep-21 22:31N 53°28' E 014°36'2 4.4
2017-Sep-21 21:58N 53°26' E 014°34'0 0.0
2017-Sep-21 21:28N 53°26' E 014°34'0 0.0
2017-Sep-21 20:58N 53°26' E 014°34'0 0.0
2017-Sep-21 20:31N 53°26' E 014°34'0 0.0
2017-Sep-21 19:58N 53°26' E 014°34'0 0.0
2017-Sep-21 19:31N 53°26' E 014°34'0 0.0
2017-Sep-21 19:01N 53°26' E 014°34'0 0.0
2017-Sep-21 18:31N 53°26' E 014°34'0 0.0
2017-Sep-21 17:58N 53°26' E 014°34'0 0.0
2017-Sep-21 17:28N 53°26' E 014°34'0 0.0
2017-Sep-21 17:01N 53°26' E 014°34'0 0.0
2017-Sep-21 16:31N 53°26' E 014°34'0 0.0
2017-Sep-21 16:01N 53°26' E 014°34'0 0.0
2017-Sep-21 15:28N 53°26' E 014°34'0 0.0
2017-Sep-21 15:01N 53°26' E 014°34'0 0.0
2017-Sep-21 14:28N 53°26' E 014°34'0 0.0
2017-Sep-21 14:01N 53°26' E 014°34'0 0.0
2017-Sep-21 13:28N 53°26' E 014°34'0 0.0
2017-Sep-21 12:58N 53°26' E 014°34'0 0.0
2017-Sep-21 12:28N 53°26' E 014°34'0 0.0
2017-Sep-21 11:58N 53°26' E 014°34'0 0.0
2017-Sep-21 11:28N 53°26' E 014°34'0 0.0
2017-Sep-21 10:58N 53°26' E 014°34'0 0.0
2017-Sep-21 10:29N 53°26' E 014°34'1 1.5
2017-Sep-21 10:00N 53°26' E 014°35'4 8.6
2017-Sep-21 09:30N 53°30' E 014°38'510.1
2017-Sep-21 09:00N 53°35' E 014°36'10912.3
2017-Sep-21 00:09N 55°04' E 012°47'214.8
2017-Sep-21 00:00N 55°06' E 012°45'714.9
2017-Sep-20 23:30N 55°12' E 012°38'714.3
2017-Sep-20 23:00N 55°19' E 012°37'714.4
2017-Sep-20 22:31N 55°26' E 012°39'713.6
2017-Sep-20 22:01N 55°33' E 012°42'611.2
2017-Sep-20 21:31N 55°38' E 012°41'5 9.4
2017-Sep-20 21:00N 55°43' E 012°41'612.1
2017-Sep-20 20:31N 55°49' E 012°42'714.2
2017-Sep-20 20:01N 55°56' E 012°38'713.9
2017-Sep-20 19:30N 56°03' E 012°38'713.3
2017-Sep-20 19:00N 56°07' E 012°30'714.4
2017-Sep-20 18:30N 56°11' E 012°19'6714.3
2017-Sep-20 13:50N 57°13' E 011°31'514.0
2017-Sep-20 13:31N 57°17' E 011°28'714.0
2017-Sep-20 13:00N 57°24' E 011°23'713.7
2017-Sep-20 12:30N 57°30' E 011°18'714.0
2017-Sep-20 12:00N 57°35' E 011°08'814.1
2017-Sep-20 11:28N 57°40' E 010°58'713.9
2017-Sep-20 11:00N 57°44' E 010°49'713.4
2017-Sep-20 10:29N 57°47' E 010°37'714.3
2017-Sep-20 10:00N 57°47' E 010°24'6914.6
2017-Sep-20 05:16N 57°48' E 008°15'414.5
2017-Sep-20 05:00N 57°48' E 008°08'714.6
2017-Sep-20 04:30N 57°48' E 007°54'714.0
2017-Sep-20 04:00N 57°48' E 007°41'612.9
2017-Sep-20 03:30N 57°48' E 007°29'613.2
2017-Sep-20 03:00N 57°48' E 007°17'713.2
2017-Sep-20 02:30N 57°48' E 007°04'713.0
2017-Sep-20 02:00N 57°49' E 006°52'713.2
2017-Sep-20 01:30N 57°51' E 006°40'713.3
2017-Sep-20 01:00N 57°53' E 006°28'612.7
2017-Sep-20 00:29N 57°55' E 006°17'713.8
2017-Sep-19 23:59N 57°58' E 006°05'714.1
2017-Sep-19 23:30N 58°02' E 005°54'1914.2
2017-Sep-19 22:10N 58°14' E 005°27'1914.3
2017-Sep-19 20:51N 58°29' E 005°05'514.1
2017-Sep-19 20:30N 58°32' E 004°58'  
2017-Sep-12 19:14N 55°53' W 007°04'416.4
2017-Sep-12 19:00N 55°50' W 007°01'816.7
2017-Sep-12 18:30N 55°42' W 006°53'917.2
2017-Sep-12 18:00N 55°35' W 006°44'816.4
2017-Sep-12 17:30N 55°29' W 006°36'816.0
2017-Sep-12 17:00N 55°26' W 006°22'816.0
2017-Sep-12 16:30N 55°25' W 006°09'714.5
2017-Sep-12 16:00N 55°20' W 005°58'815.4
2017-Sep-12 15:30N 55°14' W 005°50'814.9
2017-Sep-12 14:59N 55°08' W 005°42'1314.3
2017-Sep-12 14:05N 54°57' W 005°30'114.0
2017-Sep-12 14:00N 54°56' W 005°29'713.6
2017-Sep-12 13:30N 54°50' W 005°23'713.2
2017-Sep-12 13:00N 54°44' W 005°18'713.4
2017-Sep-12 12:30N 54°38' W 005°16'713.7
2017-Sep-12 12:00N 54°31' W 005°14'713.6
2017-Sep-12 11:30N 54°24' W 005°13'714.3
2017-Sep-12 11:00N 54°17' W 005°12'10613.5
2017-Sep-12 03:08N 52°33' W 005°45'214.4
2017-Sep-12 03:00N 52°31' W 005°46'1014.9
2017-Sep-12 02:18N 52°21' W 005°52'415.3
2017-Sep-12 02:01N 52°17' W 005°55'1115.4
2017-Sep-12 01:18N 52°07' W 006°01'515.6
2017-Sep-12 00:58N 52°03' W 006°06'  

Dump ship's entire track history